Time;durP1;ratioP1;P1;durP2;ratioP2;P2;SDS_P1;SDS_P2;PMS_P1;PMS_P2;Temp;Humidity;BMP_temperature;BMP_pressure;BME280_temperature;BME280_humidity;BME280_pressure;Samples;Min_cycle;Max_cycle;Signal;HPM_P1;HPM_P2
2023/03/26 00:00:08;;;;;;;;;0.50;0.00;;;;;;;;5112033;28;8812;-76
2023/03/26 00:02:33;;;;;;;;;0.00;0.00;;;;;;;;5112051;27;8785;-77
2023/03/26 00:04:58;;;;;;;;;0.00;0.00;;;;;;;;5111933;27;9879;-76
2023/03/26 00:07:23;;;;;;;;;0.75;0.75;;;;;;;;5114715;28;8812;-75
2023/03/26 00:09:48;;;;;;;;;0.00;0.00;;;;;;;;5115468;28;8785;-76
2023/03/26 00:12:14;;;;;;;;;0.75;0.25;;;;;;;;5115572;28;8792;-76
2023/03/26 00:14:39;;;;;;;;;0.00;0.00;;;;;;;;5115567;28;8813;-76
2023/03/26 00:17:05;;;;;;;;;2.25;1.00;;;;;;;;5115236;27;8796;-75
2023/03/26 00:19:31;;;;;;;;;0.00;0.00;;;;;;;;5115251;27;8796;-76
2023/03/26 00:21:56;;;;;;;;;0.00;0.00;;;;;;;;5115449;28;8893;-76
2023/03/26 00:24:28;;;;;;;;;0.00;0.00;;;;;;;;5128138;27;8801;-76
2023/03/26 00:26:53;;;;;;;;;2.00;0.75;;;;;;;;5136059;27;8774;-76
2023/03/26 00:29:19;;;;;;;;;1.50;0.50;;;;;;;;5112313;27;9799;-76
2023/03/26 00:31:44;;;;;;;;;0.25;0.00;;;;;;;;5094379;28;8812;-76
2023/03/26 00:34:10;;;;;;;;;0.25;0.25;;;;;;;;5094804;28;8812;-76
2023/03/26 00:36:35;;;;;;;;;0.00;0.00;;;;;;;;5094605;28;8942;-76
2023/03/26 00:39:04;;;;;;;;;0.50;0.00;;;;;;;;5094482;28;9645;-76
2023/03/26 00:41:30;;;;;;;;;1.00;1.00;;;;;;;;5107207;28;10084;-76
2023/03/26 00:43:56;;;;;;;;;0.00;0.00;;;;;;;;5114803;27;10541;-74
2023/03/26 00:46:23;;;;;;;;;0.25;0.00;;;;;;;;5114548;27;8871;-75
2023/03/26 00:48:49;;;;;;;;;0.00;0.00;;;;;;;;5114498;27;9776;-74
2023/03/26 00:51:15;;;;;;;;;0.00;0.00;;;;;;;;5114165;27;9774;-72
2023/03/26 00:53:41;;;;;;;;;0.00;0.00;;;;;;;;5112925;28;9888;-75
2023/03/26 00:56:06;;;;;;;;;0.00;0.00;;;;;;;;5114296;27;8777;-75
2023/03/26 00:58:32;;;;;;;;;2.00;1.00;;;;;;;;5114360;27;8800;-74
2023/03/26 01:00:59;;;;;;;;;2.00;0.00;;;;;;;;5113679;27;8820;-74
2023/03/26 01:03:27;;;;;;;;;0.75;0.00;;;;;;;;5113884;27;8927;-73
2023/03/26 01:05:57;;;;;;;;;0.00;0.00;;;;;;;;5113807;27;9869;-73
2023/03/26 01:08:25;;;;;;;;;1.50;0.50;;;;;;;;5113283;27;10611;-73
2023/03/26 01:10:51;;;;;;;;;0.00;0.00;;;;;;;;5113585;28;9954;-73
2023/03/26 01:13:20;;;;;;;;;1.50;0.25;;;;;;;;5113437;27;9861;-72
2023/03/26 01:15:49;;;;;;;;;2.75;1.00;;;;;;;;5111832;28;11368;-73
2023/03/26 01:18:19;;;;;;;;;3.00;1.00;;;;;;;;5113273;27;10195;-73
2023/03/26 01:20:45;;;;;;;;;0.00;0.00;;;;;;;;5113342;27;9980;-73
2023/03/26 01:23:12;;;;;;;;;0.00;0.00;;;;;;;;5113065;27;10009;-73
2023/03/26 01:25:40;;;;;;;;;0.00;0.00;;;;;;;;5113385;27;10982;-73
2023/03/26 01:28:08;;;;;;;;;0.00;0.00;;;;;;;;5113040;27;9838;-73
2023/03/26 01:30:42;;;;;;;;;1.00;0.25;;;;;;;;5113225;27;9756;-72
2023/03/26 01:33:28;;;;;;;;;0.50;0.50;;;;;;;;5113481;27;9837;-73
2023/03/26 01:35:53;;;;;;;;;0.25;0.00;;;;;;;;5113026;27;9779;-73
2023/03/26 01:38:26;;;;;;;;;1.00;0.00;;;;;;;;5112385;27;9936;-74
2023/03/26 01:41:09;;;;;;;;;0.00;0.00;;;;;;;;5113048;27;8800;-74
2023/03/26 01:43:38;;;;;;;;;1.75;0.75;;;;;;;;5112983;27;9760;-74
2023/03/26 01:46:05;;;;;;;;;2.50;1.00;;;;;;;;5111698;28;9824;-74
2023/03/26 01:48:33;;;;;;;;;1.00;0.00;;;;;;;;5113129;27;9770;-74
2023/03/26 01:50:58;;;;;;;;;0.75;0.75;;;;;;;;5113223;27;9869;-73
2023/03/26 01:53:24;;;;;;;;;1.00;1.00;;;;;;;;5112855;27;9895;-73
2023/03/26 01:55:55;;;;;;;;;2.50;1.00;;;;;;;;5112904;27;8799;-73
2023/03/26 01:58:23;;;;;;;;;0.00;0.00;;;;;;;;5112820;28;8765;-73
2023/03/26 02:00:53;;;;;;;;;0.00;0.00;;;;;;;;5111423;28;10002;-74
2023/03/26 02:03:26;;;;;;;;;0.75;0.50;;;;;;;;5113079;27;9910;-73
2023/03/26 02:06:14;;;;;;;;;0.25;0.25;;;;;;;;5112989;27;9838;-73
2023/03/26 02:09:00;;;;;;;;;1.50;1.00;;;;;;;;5113419;27;9872;-73
2023/03/26 02:11:25;;;;;;;;;0.00;0.00;;;;;;;;5112715;28;9806;-73
2023/03/26 02:13:51;;;;;;;;;1.00;0.25;;;;;;;;5112976;27;9935;-74
2023/03/26 02:16:18;;;;;;;;;0.00;0.00;;;;;;;;5113485;27;8877;-74
2023/03/26 02:18:45;;;;;;;;;2.00;0.75;;;;;;;;5113949;27;9816;-74
2023/03/26 02:21:12;;;;;;;;;0.00;0.00;;;;;;;;5113396;27;9867;-73
2023/03/26 02:23:39;;;;;;;;;0.25;0.25;;;;;;;;5114533;27;9952;-74
2023/03/26 02:26:05;;;;;;;;;1.00;1.00;;;;;;;;5113908;27;10005;-75
2023/03/26 02:28:30;;;;;;;;;2.50;1.00;;;;;;;;5111912;28;9770;-75
2023/03/26 02:30:56;;;;;;;;;0.00;0.00;;;;;;;;5112622;27;9948;-75
2023/03/26 02:33:22;;;;;;;;;1.00;1.00;;;;;;;;5112570;27;8942;-74
2023/03/26 02:35:47;;;;;;;;;2.00;1.00;;;;;;;;5112146;27;8793;-75
2023/03/26 02:38:13;;;;;;;;;0.00;0.00;;;;;;;;5112206;27;8903;-75
2023/03/26 02:40:39;;;;;;;;;0.00;0.00;;;;;;;;5112790;27;8805;-75
2023/03/26 02:43:04;;;;;;;;;2.00;1.00;;;;;;;;5112213;27;9884;-75
2023/03/26 02:45:29;;;;;;;;;0.50;0.50;;;;;;;;5112421;28;8878;-74
2023/03/26 02:47:54;;;;;;;;;0.75;0.75;;;;;;;;5112169;27;8816;-74
2023/03/26 02:50:20;;;;;;;;;2.00;1.00;;;;;;;;5112066;28;9625;-74
2023/03/26 02:52:47;;;;;;;;;1.75;1.00;;;;;;;;5112077;28;8793;-74
2023/03/26 02:55:13;;;;;;;;;0.00;0.00;;;;;;;;5112040;27;8797;-74
2023/03/26 02:57:38;;;;;;;;;1.00;1.00;;;;;;;;5111934;28;9875;-74
2023/03/26 03:00:14;;;;;;;;;2.00;2.00;;;;;;;;5111716;28;8832;-74
2023/03/26 03:02:40;;;;;;;;;3.25;0.25;;;;;;;;5111724;27;8891;-74
2023/03/26 03:05:06;;;;;;;;;1.00;1.00;;;;;;;;5111888;28;9871;-74
2023/03/26 03:07:36;;;;;;;;;1.00;1.00;;;;;;;;5111687;27;9628;-74
2023/03/26 03:10:02;;;;;;;;;1.00;1.00;;;;;;;;5111878;27;9789;-74
2023/03/26 03:12:27;;;;;;;;;0.25;0.25;;;;;;;;5111692;27;9953;-74
2023/03/26 03:14:52;;;;;;;;;1.00;1.00;;;;;;;;5111676;28;9581;-74
2023/03/26 03:17:19;;;;;;;;;0.00;0.00;;;;;;;;5111532;28;8828;-74
2023/03/26 03:19:44;;;;;;;;;1.50;0.00;;;;;;;;5111718;27;8813;-74
2023/03/26 03:22:10;;;;;;;;;0.50;0.50;;;;;;;;5111808;27;10038;-74
2023/03/26 03:24:35;;;;;;;;;0.50;0.00;;;;;;;;5111218;27;8898;-74
2023/03/26 03:27:00;;;;;;;;;0.75;0.75;;;;;;;;5093522;28;9166;-73
2023/03/26 03:29:26;;;;;;;;;1.00;0.00;;;;;;;;5111540;27;8816;-74
2023/03/26 03:31:51;;;;;;;;;2.25;0.00;;;;;;;;5111413;28;8784;-74
2023/03/26 03:34:16;;;;;;;;;0.00;0.00;;;;;;;;5111536;28;8987;-74
2023/03/26 03:36:41;;;;;;;;;0.00;0.00;;;;;;;;5111491;28;8820;-74
2023/03/26 03:39:07;;;;;;;;;0.00;0.00;;;;;;;;5111299;28;8776;-74
2023/03/26 03:41:32;;;;;;;;;0.00;0.00;;;;;;;;5113574;28;8971;-74
2023/03/26 03:43:58;;;;;;;;;1.00;0.00;;;;;;;;5115568;28;8788;-73
2023/03/26 03:46:23;;;;;;;;;0.00;0.00;;;;;;;;5115690;27;8773;-74
2023/03/26 03:48:49;;;;;;;;;0.00;0.00;;;;;;;;5097008;28;9797;-73
2023/03/26 03:51:17;;;;;;;;;0.00;0.00;;;;;;;;5113640;28;8843;-74
2023/03/26 03:53:44;;;;;;;;;1.00;0.00;;;;;;;;5114723;27;8780;-74
2023/03/26 03:56:13;;;;;;;;;0.50;0.00;;;;;;;;5114909;27;9747;-74
2023/03/26 03:58:39;;;;;;;;;0.00;0.00;;;;;;;;5113449;28;9837;-74
2023/03/26 04:01:05;;;;;;;;;0.00;0.00;;;;;;;;5114953;27;9783;-75
2023/03/26 04:03:30;;;;;;;;;0.00;0.00;;;;;;;;5114828;27;9796;-74
2023/03/26 04:05:55;;;;;;;;;0.00;0.00;;;;;;;;5114591;27;8800;-75
2023/03/26 04:08:22;;;;;;;;;1.00;0.00;;;;;;;;5114571;27;8985;-75
2023/03/26 04:10:47;;;;;;;;;0.00;0.00;;;;;;;;5114880;27;8765;-75
2023/03/26 04:13:13;;;;;;;;;0.75;0.00;;;;;;;;5114548;27;9693;-75
2023/03/26 04:15:39;;;;;;;;;0.00;0.00;;;;;;;;5114884;27;8841;-75
2023/03/26 04:18:09;;;;;;;;;0.00;0.00;;;;;;;;5114618;27;8776;-75
2023/03/26 04:20:35;;;;;;;;;1.00;0.00;;;;;;;;5108942;27;8799;-75
2023/03/26 04:23:00;;;;;;;;;0.00;0.00;;;;;;;;5095396;27;9863;-75
2023/03/26 04:25:29;;;;;;;;;0.00;0.00;;;;;;;;5114622;28;8801;-75
2023/03/26 04:27:57;;;;;;;;;0.00;0.00;;;;;;;;5114493;27;9572;-75
2023/03/26 04:30:22;;;;;;;;;0.00;0.00;;;;;;;;5114766;27;9675;-75
2023/03/26 04:32:48;;;;;;;;;0.00;0.00;;;;;;;;5114271;27;9865;-76
2023/03/26 04:35:15;;;;;;;;;0.00;0.00;;;;;;;;5114076;28;8792;-75
2023/03/26 04:37:43;;;;;;;;;0.00;0.00;;;;;;;;5114346;27;8828;-75
2023/03/26 04:40:11;;;;;;;;;1.00;0.00;;;;;;;;5114125;27;9652;-75
2023/03/26 04:42:40;;;;;;;;;0.00;0.00;;;;;;;;5114209;27;9664;-76
2023/03/26 04:45:06;;;;;;;;;0.00;0.00;;;;;;;;5114164;27;9600;-76
2023/03/26 04:47:35;;;;;;;;;0.00;0.00;;;;;;;;5114179;27;9668;-75
2023/03/26 04:50:00;;;;;;;;;0.00;0.00;;;;;;;;5114416;27;9607;-76
2023/03/26 04:52:26;;;;;;;;;0.00;0.00;;;;;;;;5113411;28;9631;-75
2023/03/26 04:54:51;;;;;;;;;1.00;0.00;;;;;;;;5113793;27;8777;-75
2023/03/26 04:57:37;;;;;;;;;0.00;0.00;;;;;;;;5113693;27;8804;-75
2023/03/26 05:00:13;;;;;;;;;0.00;0.00;;;;;;;;5113667;27;8920;-75
2023/03/26 05:02:40;;;;;;;;;0.00;0.00;;;;;;;;5113892;27;9518;-75
2023/03/26 05:05:06;;;;;;;;;0.00;0.00;;;;;;;;5113974;28;9736;-75
2023/03/26 05:07:32;;;;;;;;;0.00;0.00;;;;;;;;5112382;28;9641;-75
2023/03/26 05:09:57;;;;;;;;;0.00;0.00;;;;;;;;5114003;27;8816;-75
2023/03/26 05:12:22;;;;;;;;;0.00;0.00;;;;;;;;5113866;27;11402;-75
2023/03/26 05:14:47;;;;;;;;;0.00;0.00;;;;;;;;5113802;27;8831;-75
2023/03/26 05:17:13;;;;;;;;;0.00;0.00;;;;;;;;5113891;28;8785;-75
2023/03/26 05:19:40;;;;;;;;;2.00;0.00;;;;;;;;5113728;27;9699;-75
2023/03/26 05:22:05;;;;;;;;;0.00;0.00;;;;;;;;5113144;27;9813;-75
2023/03/26 05:24:30;;;;;;;;;0.00;0.00;;;;;;;;5113772;27;9880;-75
2023/03/26 05:26:56;;;;;;;;;0.00;0.00;;;;;;;;5113838;28;8773;-75
2023/03/26 05:29:23;;;;;;;;;0.00;0.00;;;;;;;;5113417;27;8816;-75
2023/03/26 05:31:48;;;;;;;;;0.00;0.00;;;;;;;;5113598;27;8789;-75
2023/03/26 05:34:13;;;;;;;;;0.00;0.00;;;;;;;;5113543;27;9882;-75
2023/03/26 05:36:39;;;;;;;;;0.75;0.00;;;;;;;;5113240;27;8873;-75
2023/03/26 05:39:04;;;;;;;;;0.00;0.00;;;;;;;;5113757;27;9563;-75
2023/03/26 05:41:30;;;;;;;;;0.00;0.00;;;;;;;;5113895;27;8821;-75
2023/03/26 05:43:55;;;;;;;;;1.50;0.00;;;;;;;;5113973;28;8768;-75
2023/03/26 05:46:21;;;;;;;;;0.00;0.00;;;;;;;;5114065;28;8773;-76
2023/03/26 05:48:47;;;;;;;;;0.00;0.00;;;;;;;;5114421;27;9595;-75
2023/03/26 05:51:14;;;;;;;;;0.00;0.00;;;;;;;;5114248;27;9694;-75
2023/03/26 05:53:40;;;;;;;;;0.00;0.00;;;;;;;;5114623;27;8788;-75
2023/03/26 05:56:05;;;;;;;;;0.00;0.00;;;;;;;;5113946;27;9845;-75
2023/03/26 05:58:31;;;;;;;;;0.75;0.00;;;;;;;;5112789;28;8789;-75
2023/03/26 06:00:58;;;;;;;;;0.00;0.00;;;;;;;;5112875;27;8852;-74
2023/03/26 06:03:23;;;;;;;;;0.00;0.00;;;;;;;;5112211;27;9769;-75
2023/03/26 06:05:48;;;;;;;;;0.00;0.00;;;;;;;;5112551;27;9864;-75
2023/03/26 06:08:14;;;;;;;;;0.00;0.00;;;;;;;;5112870;27;8805;-74
2023/03/26 06:10:40;;;;;;;;;0.00;0.00;;;;;;;;5112707;27;8789;-75
2023/03/26 06:13:05;;;;;;;;;0.50;0.00;;;;;;;;5111415;28;12151;-75
2023/03/26 06:15:30;;;;;;;;;0.00;0.00;;;;;;;;5112777;27;8789;-75
2023/03/26 06:17:56;;;;;;;;;0.00;0.00;;;;;;;;5112588;28;8785;-75
2023/03/26 06:20:21;;;;;;;;;0.00;0.00;;;;;;;;5112533;28;8804;-75
2023/03/26 06:22:46;;;;;;;;;0.00;0.00;;;;;;;;5111283;28;8805;-75
2023/03/26 06:25:11;;;;;;;;;0.00;0.00;;;;;;;;5112539;27;8792;-75
2023/03/26 06:27:37;;;;;;;;;1.75;0.00;;;;;;;;5112732;28;8776;-74
2023/03/26 06:30:02;;;;;;;;;0.00;0.00;;;;;;;;5112500;27;9544;-75
2023/03/26 06:32:27;;;;;;;;;1.00;1.00;;;;;;;;5112416;28;8889;-74
2023/03/26 06:34:52;;;;;;;;;0.00;0.00;;;;;;;;5112276;28;8793;-74
2023/03/26 06:37:17;;;;;;;;;1.00;0.00;;;;;;;;5110461;28;8831;-74
2023/03/26 06:39:43;;;;;;;;;0.00;0.00;;;;;;;;5112491;28;9523;-74
2023/03/26 06:42:08;;;;;;;;;2.75;0.00;;;;;;;;5112318;28;8883;-74
2023/03/26 06:44:33;;;;;;;;;0.00;0.00;;;;;;;;5112367;28;8785;-74
2023/03/26 06:46:58;;;;;;;;;0.00;0.00;;;;;;;;5112492;28;8865;-74
2023/03/26 06:49:23;;;;;;;;;1.50;0.00;;;;;;;;5111883;27;8793;-75
2023/03/26 06:51:49;;;;;;;;;0.00;0.00;;;;;;;;5112267;28;8827;-74
2023/03/26 06:54:14;;;;;;;;;0.25;0.00;;;;;;;;5112094;28;8843;-74
2023/03/26 06:56:39;;;;;;;;;0.00;0.00;;;;;;;;5112192;27;8887;-75
2023/03/26 06:59:05;;;;;;;;;0.00;0.00;;;;;;;;5112266;27;8822;-74
2023/03/26 07:01:30;;;;;;;;;3.25;0.00;;;;;;;;5111738;28;8825;-75
2023/03/26 07:03:55;;;;;;;;;0.00;0.00;;;;;;;;5111936;27;8811;-74
2023/03/26 07:06:20;;;;;;;;;0.00;0.00;;;;;;;;5112041;28;8781;-74
2023/03/26 07:08:46;;;;;;;;;0.00;0.00;;;;;;;;5112105;28;8793;-74
2023/03/26 07:11:12;;;;;;;;;0.00;0.00;;;;;;;;5111941;27;8793;-74
2023/03/26 07:13:38;;;;;;;;;2.00;0.00;;;;;;;;5112075;28;8784;-74
2023/03/26 07:16:04;;;;;;;;;1.25;0.00;;;;;;;;5112165;27;8869;-74
2023/03/26 07:18:29;;;;;;;;;1.00;0.00;;;;;;;;5111472;27;10676;-74
2023/03/26 07:20:55;;;;;;;;;0.00;0.00;;;;;;;;5111607;27;8905;-74
2023/03/26 07:23:20;;;;;;;;;0.75;0.00;;;;;;;;5111601;27;8899;-74
2023/03/26 07:25:47;;;;;;;;;0.25;0.25;;;;;;;;5111663;28;8773;-74
2023/03/26 07:28:32;;;;;;;;;2.00;0.00;;;;;;;;5111450;27;8780;-75
2023/03/26 07:31:02;;;;;;;;;1.00;0.00;;;;;;;;5111040;28;9689;-75
2023/03/26 07:33:41;;;;;;;;;1.00;0.00;;;;;;;;5111468;27;9753;-75
2023/03/26 07:36:25;;;;;;;;;2.00;0.50;;;;;;;;5111509;27;9910;-75
2023/03/26 07:38:50;;;;;;;;;2.00;1.00;;;;;;;;5111419;28;10420;-75
2023/03/26 07:41:31;;;;;;;;;0.50;0.00;;;;;;;;5111606;28;9649;-75
2023/03/26 07:44:14;;;;;;;;;0.25;0.25;;;;;;;;5111317;27;9537;-75
2023/03/26 07:46:40;;;;;;;;;2.00;1.00;;;;;;;;5111249;27;9837;-75
2023/03/26 07:49:05;;;;;;;;;3.00;0.00;;;;;;;;5111380;27;10687;-75
2023/03/26 07:51:31;;;;;;;;;1.00;1.00;;;;;;;;5111308;27;8792;-75
2023/03/26 07:53:59;;;;;;;;;3.00;1.00;;;;;;;;5111249;27;8781;-75
2023/03/26 07:56:42;;;;;;;;;1.00;1.00;;;;;;;;5111002;27;12192;-75
2023/03/26 07:59:18;;;;;;;;;0.00;0.00;;;;;;;;5111203;28;9879;-75
2023/03/26 08:01:49;;;;;;;;;1.25;0.00;;;;;;;;5111017;27;9850;-76
2023/03/26 08:04:18;;;;;;;;;1.00;0.25;;;;;;;;5111290;27;9797;-75
2023/03/26 08:06:47;;;;;;;;;2.00;0.50;;;;;;;;5110881;28;9820;-75
2023/03/26 08:09:31;;;;;;;;;1.75;1.75;;;;;;;;5111130;27;9843;-76
2023/03/26 08:12:05;;;;;;;;;0.75;0.75;;;;;;;;5111311;28;9782;-76
2023/03/26 08:14:36;;;;;;;;;0.25;0.00;;;;;;;;5111167;28;9748;-76
2023/03/26 08:17:05;;;;;;;;;4.25;0.75;;;;;;;;5111067;28;9683;-75
2023/03/26 08:19:51;;;;;;;;;3.00;1.00;;;;;;;;5111065;27;9928;-75
2023/03/26 08:22:25;;;;;;;;;0.00;0.00;;;;;;;;5027903;28;9849;-75
2023/03/26 08:25:15;;;;;;;;;0.00;0.00;;;;;;;;5012065;28;9861;-76
2023/03/26 08:27:46;;;;;;;;;4.00;1.00;;;;;;;;5028665;28;10725;-76
2023/03/26 08:30:20;;;;;;;;;2.00;0.50;;;;;;;;5030885;28;9805;-75
2023/03/26 08:32:51;;;;;;;;;1.00;0.00;;;;;;;;5031410;28;9785;-76
2023/03/26 08:35:17;;;;;;;;;0.75;0.75;;;;;;;;5031326;28;9657;-75
2023/03/26 08:37:44;;;;;;;;;2.25;1.50;;;;;;;;5031260;28;9735;-76
2023/03/26 08:40:09;;;;;;;;;2.50;1.00;;;;;;;;5031423;28;8799;-75
2023/03/26 08:42:43;;;;;;;;;1.00;1.00;;;;;;;;5031374;28;9745;-76
2023/03/26 08:45:24;;;;;;;;;0.75;0.00;;;;;;;;5031198;28;9632;-75
2023/03/26 08:48:08;;;;;;;;;1.00;1.00;;;;;;;;5031080;28;9599;-76
2023/03/26 08:50:42;;;;;;;;;0.00;0.00;;;;;;;;5030904;28;9771;-75
2023/03/26 08:53:10;;;;;;;;;0.75;0.75;;;;;;;;5031223;28;9620;-76
2023/03/26 08:55:54;;;;;;;;;0.00;0.00;;;;;;;;5031478;28;9765;-76
2023/03/26 08:58:25;;;;;;;;;0.75;0.75;;;;;;;;5035216;28;9728;-75
2023/03/26 09:01:02;;;;;;;;;0.00;0.00;;;;;;;;5094097;28;9777;-75
2023/03/26 09:03:46;;;;;;;;;0.00;0.00;;;;;;;;5093612;28;9718;-75
2023/03/26 09:06:20;;;;;;;;;0.50;0.00;;;;;;;;5093851;28;10568;-75
2023/03/26 09:08:48;;;;;;;;;0.00;0.00;;;;;;;;5104376;27;9712;-75
2023/03/26 09:11:32;;;;;;;;;1.50;0.00;;;;;;;;5100164;27;9614;-74
2023/03/26 09:14:01;;;;;;;;;0.75;0.75;;;;;;;;5105465;27;10322;-74
2023/03/26 09:16:26;;;;;;;;;2.00;0.00;;;;;;;;5101841;28;9620;-74
2023/03/26 09:19:10;;;;;;;;;1.00;0.00;;;;;;;;5097844;27;9570;-74
2023/03/26 09:21:47;;;;;;;;;1.00;0.00;;;;;;;;5108978;28;8808;-75
2023/03/26 09:24:24;;;;;;;;;0.75;0.00;;;;;;;;5100195;27;9626;-74
2023/03/26 09:27:06;;;;;;;;;1.50;0.00;;;;;;;;5102154;27;9725;-75
2023/03/26 09:29:37;;;;;;;;;0.00;0.00;;;;;;;;5103322;27;9708;-75
2023/03/26 09:32:09;;;;;;;;;0.00;0.00;;;;;;;;5092433;27;9894;-75
2023/03/26 09:34:36;;;;;;;;;3.00;0.00;;;;;;;;5095014;27;9687;-75
2023/03/26 09:37:04;;;;;;;;;0.00;0.00;;;;;;;;5105400;28;9689;-75
2023/03/26 09:39:42;;;;;;;;;1.00;1.00;;;;;;;;5095897;27;9843;-75
2023/03/26 09:42:22;;;;;;;;;0.00;0.00;;;;;;;;5097789;28;9854;-75
2023/03/26 09:44:59;;;;;;;;;0.50;0.00;;;;;;;;5109639;27;9746;-75
2023/03/26 09:47:27;;;;;;;;;1.00;0.00;;;;;;;;5096876;28;9710;-75
2023/03/26 09:50:11;;;;;;;;;0.00;0.00;;;;;;;;5109733;28;9951;-75
2023/03/26 09:52:56;;;;;;;;;0.25;0.00;;;;;;;;5101462;28;9788;-76
2023/03/26 09:55:34;;;;;;;;;0.00;0.00;;;;;;;;5029762;28;10565;-76
2023/03/26 09:58:18;;;;;;;;;0.00;0.00;;;;;;;;5024904;28;9544;-73
2023/03/26 10:00:59;;;;;;;;;0.00;0.00;;;;;;;;5019890;28;9832;-73
2023/03/26 10:03:31;;;;;;;;;0.00;0.00;;;;;;;;5014242;28;9803;-75
2023/03/26 10:05:59;;;;;;;;;0.50;0.50;;;;;;;;5026077;28;9832;-76
2023/03/26 10:08:27;;;;;;;;;0.00;0.00;;;;;;;;5017157;28;9629;-75
2023/03/26 10:11:04;;;;;;;;;0.00;0.00;;;;;;;;5018215;28;9613;-74
2023/03/26 10:13:41;;;;;;;;;0.00;0.00;;;;;;;;5025516;28;9640;-75
2023/03/26 10:16:06;;;;;;;;;0.00;0.00;;;;;;;;5029592;28;9737;-74
2023/03/26 10:18:45;;;;;;;;;0.00;0.00;;;;;;;;5020975;28;9571;-75
2023/03/26 10:21:16;;;;;;;;;0.50;0.00;;;;;;;;5023210;28;8806;-74
2023/03/26 10:23:51;;;;;;;;;0.00;0.00;;;;;;;;5016974;28;9703;-75
2023/03/26 10:26:16;;;;;;;;;0.50;0.00;;;;;;;;5000108;28;9796;-75
2023/03/26 10:28:45;;;;;;;;;0.00;0.00;;;;;;;;5025703;28;9644;-75
2023/03/26 10:31:33;;;;;;;;;0.00;0.00;;;;;;;;5015604;28;9561;-75
2023/03/26 10:34:07;;;;;;;;;0.00;0.00;;;;;;;;5087198;28;9711;-75
2023/03/26 10:36:32;;;;;;;;;0.00;0.00;;;;;;;;5103183;28;9626;-75
2023/03/26 10:39:16;;;;;;;;;0.00;0.00;;;;;;;;5103499;28;9740;-75
2023/03/26 10:42:00;;;;;;;;;0.00;0.00;;;;;;;;5105241;27;8825;-75
2023/03/26 10:44:29;;;;;;;;;1.00;0.00;;;;;;;;5090152;28;9725;-75
2023/03/26 10:46:57;;;;;;;;;0.00;0.00;;;;;;;;5103305;28;9602;-74
2023/03/26 10:49:25;;;;;;;;;1.00;0.00;;;;;;;;5095582;28;9538;-75
2023/03/26 10:52:08;;;;;;;;;0.00;0.00;;;;;;;;5106520;27;9612;-75
2023/03/26 10:54:42;;;;;;;;;0.00;0.00;;;;;;;;5100685;28;9539;-75
2023/03/26 10:57:37;;;;;;;;;1.00;0.00;;;;;;;;5096557;28;9657;-75
2023/03/26 11:00:25;;;;;;;;;1.00;0.00;;;;;;;;5082098;28;9430;-75
2023/03/26 11:03:09;;;;;;;;;0.00;0.00;;;;;;;;5100590;27;9499;-75
2023/03/26 11:05:37;;;;;;;;;0.00;0.00;;;;;;;;5107675;27;9313;-75
2023/03/26 11:08:03;;;;;;;;;0.00;0.00;;;;;;;;5095089;28;9617;-75
2023/03/26 11:10:36;;;;;;;;;1.00;1.00;;;;;;;;5098719;27;9578;-75
2023/03/26 11:13:16;;;;;;;;;0.00;0.00;;;;;;;;5091119;28;8776;-76
2023/03/26 11:16:05;;;;;;;;;0.00;0.00;;;;;;;;5106748;28;9543;-76
2023/03/26 11:18:37;;;;;;;;;0.00;0.00;;;;;;;;5091057;27;9472;-74
2023/03/26 11:21:08;;;;;;;;;1.00;1.00;;;;;;;;5098644;27;9487;-75
2023/03/26 11:23:44;;;;;;;;;1.00;0.00;;;;;;;;5096719;27;9613;-76
2023/03/26 11:26:10;;;;;;;;;2.00;0.50;;;;;;;;5104527;28;9468;-75
2023/03/26 11:28:38;;;;;;;;;1.00;0.50;;;;;;;;5101310;28;9592;-75
2023/03/26 11:31:17;;;;;;;;;1.00;1.00;;;;;;;;5098873;28;8877;-75
2023/03/26 11:33:45;;;;;;;;;0.00;0.00;;;;;;;;5107717;28;9524;-75
2023/03/26 11:36:19;;;;;;;;;1.00;1.00;;;;;;;;5094892;28;9556;-76
2023/03/26 11:38:49;;;;;;;;;2.00;1.75;;;;;;;;5100446;27;9658;-75
2023/03/26 11:41:17;;;;;;;;;0.00;0.00;;;;;;;;5105466;27;9692;-75
2023/03/26 11:43:43;;;;;;;;;1.00;1.00;;;;;;;;5094070;27;9561;-76
2023/03/26 11:46:11;;;;;;;;;0.50;0.00;;;;;;;;5106232;27;9702;-77
2023/03/26 11:48:45;;;;;;;;;0.00;0.00;;;;;;;;5100489;28;9643;-77
2023/03/26 11:51:13;;;;;;;;;2.00;0.00;;;;;;;;5095539;28;10390;-76
2023/03/26 11:53:39;;;;;;;;;0.00;0.00;;;;;;;;5106906;28;9795;-77
2023/03/26 11:56:14;;;;;;;;;0.50;0.00;;;;;;;;5095260;28;9563;-75
2023/03/26 11:58:52;;;;;;;;;0.00;0.00;;;;;;;;5101148;27;8857;-75
2023/03/26 12:01:21;;;;;;;;;0.00;0.00;;;;;;;;5105593;28;9535;-76
2023/03/26 12:04:12;;;;;;;;;0.00;0.00;;;;;;;;5097340;27;9406;-76
2023/03/26 12:06:37;;;;;;;;;0.67;0.00;;;;;;;;5103144;28;9458;-75
2023/03/26 12:09:02;;;;;;;;;0.00;0.00;;;;;;;;5101576;28;10191;-75
2023/03/26 12:11:30;;;;;;;;;0.75;0.00;;;;;;;;5110070;28;9010;-76
2023/03/26 12:14:03;;;;;;;;;0.00;0.00;;;;;;;;5097124;27;8821;-75
2023/03/26 12:16:29;;;;;;;;;0.00;0.00;;;;;;;;5110510;27;9650;-76
2023/03/26 12:19:06;;;;;;;;;0.00;0.00;;;;;;;;5102273;27;9694;-76
2023/03/26 12:21:48;;;;;;;;;0.00;0.00;;;;;;;;5109134;28;8809;-75
2023/03/26 12:24:24;;;;;;;;;0.00;0.00;;;;;;;;5099625;27;9576;-76
2023/03/26 12:26:55;;;;;;;;;0.00;0.00;;;;;;;;5104451;28;10198;-76
2023/03/26 12:29:22;;;;;;;;;0.00;0.00;;;;;;;;5105157;27;9575;-75
2023/03/26 12:32:16;;;;;;;;;0.00;0.00;;;;;;;;5093031;27;9580;-76
2023/03/26 12:34:41;;;;;;;;;0.00;0.00;;;;;;;;5080344;28;9573;-76
2023/03/26 12:37:27;;;;;;;;;1.00;1.00;;;;;;;;5093624;28;10246;-74
2023/03/26 12:40:04;;;;;;;;;1.67;0.33;;;;;;;;5093496;28;8767;-74
2023/03/26 12:42:30;;;;;;;;;1.00;0.00;;;;;;;;5093655;28;9402;-75
2023/03/26 12:44:56;;;;;;;;;0.00;0.00;;;;;;;;5092061;27;9463;-75
2023/03/26 12:47:26;;;;;;;;;0.00;0.00;;;;;;;;5092171;27;9414;-75
2023/03/26 12:49:52;;;;;;;;;0.00;0.00;;;;;;;;5092705;27;9452;-75
2023/03/26 12:52:26;;;;;;;;;0.00;0.00;;;;;;;;5094871;27;9433;-78
2023/03/26 12:55:12;;;;;;;;;0.00;0.00;;;;;;;;5097533;27;9437;-76
2023/03/26 12:57:45;;;;;;;;;0.00;0.00;;;;;;;;5094598;28;9491;-77
2023/03/26 13:00:29;;;;;;;;;0.00;0.00;;;;;;;;5095561;27;9488;-77
2023/03/26 13:02:57;;;;;;;;;0.00;0.00;;;;;;;;5094629;27;9336;-79
2023/03/26 13:05:38;;;;;;;;;2.00;0.00;;;;;;;;5100529;27;9426;-79
2023/03/26 13:08:19;;;;;;;;;0.00;0.00;;;;;;;;5097492;28;9537;-78
2023/03/26 13:10:44;;;;;;;;;0.00;0.00;;;;;;;;5104664;27;9609;-79
2023/03/26 13:13:36;;;;;;;;;0.00;0.00;;;;;;;;5107081;28;9571;-80
2023/03/26 13:16:21;;;;;;;;;0.00;0.00;;;;;;;;5090436;28;8818;-78
2023/03/26 13:18:52;;;;;;;;;0.00;0.00;;;;;;;;5103242;28;9591;-81
2023/03/26 13:21:29;;;;;;;;;0.00;0.00;;;;;;;;5099491;27;9570;-77
2023/03/26 13:24:01;;;;;;;;;1.00;0.00;;;;;;;;5101795;27;9399;-76
2023/03/26 13:26:40;;;;;;;;;0.00;0.00;;;;;;;;5098864;28;9494;-79
2023/03/26 13:29:24;;;;;;;;;1.00;0.00;;;;;;;;5099416;27;9479;-79
2023/03/26 13:31:59;;;;;;;;;0.00;0.00;;;;;;;;5108244;28;9490;-80
2023/03/26 13:34:44;;;;;;;;;0.00;0.00;;;;;;;;5104641;27;9507;-80
2023/03/26 13:37:24;;;;;;;;;0.00;0.00;;;;;;;;5092244;27;10392;-78
2023/03/26 13:39:49;;;;;;;;;0.00;0.00;;;;;;;;5094820;27;9529;-78
2023/03/26 13:42:14;;;;;;;;;0.50;0.00;;;;;;;;5107069;27;9514;-74
2023/03/26 13:44:39;;;;;;;;;2.25;0.25;;;;;;;;5115011;27;8801;-75
2023/03/26 13:47:16;;;;;;;;;0.00;0.00;;;;;;;;5090139;27;9468;-80
2023/03/26 13:49:45;;;;;;;;;0.00;0.00;;;;;;;;5109313;28;8789;-80
2023/03/26 13:52:24;;;;;;;;;0.00;0.00;;;;;;;;5106729;27;9464;-77
2023/03/26 13:55:16;;;;;;;;;0.25;0.00;;;;;;;;5101722;28;9501;-76
2023/03/26 13:57:45;;;;;;;;;0.00;0.00;;;;;;;;5094495;27;9580;-78
2023/03/26 14:00:15;;;;;;;;;0.33;0.00;;;;;;;;5105032;28;9430;-77
2023/03/26 14:02:47;;;;;;;;;0.00;0.00;;;;;;;;5100201;28;9317;-78
2023/03/26 14:05:12;;;;;;;;;0.00;0.00;;;;;;;;5097435;27;9354;-74
2023/03/26 14:07:38;;;;;;;;;0.33;0.00;;;;;;;;5106444;28;9430;-75
2023/03/26 14:10:09;;;;;;;;;4.00;0.00;;;;;;;;5094331;28;8914;-74
2023/03/26 14:12:34;;;;;;;;;1.00;0.00;;;;;;;;5104877;27;8855;-75
2023/03/26 14:15:01;;;;;;;;;0.00;0.00;;;;;;;;5096023;27;9423;-78
2023/03/26 14:17:33;;;;;;;;;2.75;0.50;;;;;;;;5095198;27;8779;-75
2023/03/26 14:20:16;;;;;;;;;1.00;0.00;;;;;;;;5107455;28;9645;-75
2023/03/26 14:22:47;;;;;;;;;0.00;0.00;;;;;;;;5099681;28;9508;-74
2023/03/26 14:25:18;;;;;;;;;0.00;0.00;;;;;;;;5096696;27;9556;-75
2023/03/26 14:27:57;;;;;;;;;0.00;0.00;;;;;;;;5107358;27;9680;-75
2023/03/26 14:30:37;;;;;;;;;0.00;0.00;;;;;;;;5097499;28;9466;-76
2023/03/26 14:33:26;;;;;;;;;0.00;0.00;;;;;;;;5105631;27;9620;-75
2023/03/26 14:36:10;;;;;;;;;0.00;0.00;;;;;;;;5089387;28;10313;-74
2023/03/26 14:38:55;;;;;;;;;0.00;0.00;;;;;;;;5098698;28;9685;-77
2023/03/26 14:41:28;;;;;;;;;1.00;0.00;;;;;;;;5096175;27;9568;-76
2023/03/26 14:44:11;;;;;;;;;2.00;1.00;;;;;;;;5104059;27;9618;-75
2023/03/26 14:46:51;;;;;;;;;0.25;0.00;;;;;;;;5101445;27;9465;-79
2023/03/26 14:49:16;;;;;;;;;1.00;0.00;;;;;;;;5093303;27;9618;-77
2023/03/26 14:52:00;;;;;;;;;0.00;0.00;;;;;;;;5099720;27;9529;-77
2023/03/26 14:54:27;;;;;;;;;0.75;0.00;;;;;;;;5089912;28;9597;-76
2023/03/26 14:57:11;;;;;;;;;0.00;0.00;;;;;;;;5095322;27;9524;-78
2023/03/26 14:59:36;;;;;;;;;0.00;0.00;;;;;;;;5092501;28;9544;-77
2023/03/26 15:02:25;;;;;;;;;1.25;0.00;;;;;;;;5093356;28;9595;-78
2023/03/26 15:04:53;;;;;;;;;0.00;0.00;;;;;;;;5087314;27;8801;-77
2023/03/26 15:07:35;;;;;;;;;0.00;0.00;;;;;;;;5091249;27;10214;-77
2023/03/26 15:10:21;;;;;;;;;0.00;0.00;;;;;;;;5094614;28;9482;-77
2023/03/26 15:13:05;;;;;;;;;0.00;0.00;;;;;;;;5101125;27;9652;-76
2023/03/26 15:15:49;;;;;;;;;0.00;0.00;;;;;;;;5106999;28;9524;-76